Flight Track Log - Related Links

Times and Time Zones

All times are in EDT time to prevent confusion due to time zone crossing. See the N830QS flight status page for this flight to view local times or setup timezone preferences in your user account.

Time Position Orientation Groundspeed Altitude Reporting Facility
EDT Latitude Longitude Course Direction KTS MPH feet Rate Location/Type
Wed 12:23:02 PM 40.8833 -74.0333 323° Northwest 210 242 1,300  Level New York TRACON
Wed 12:24:08 PM 40.9167 -74.0667 323° Northwest 203 234 3,100 1,650 Climbing New York TRACON
Wed 12:25:02 PM 40.9167 -74.1333 270° West 218 251 4,600 1,526 Climbing New York TRACON
Wed 12:26:02 PM 40.9167 -74.2333 270° West 253 291 6,000 950 Climbing New York TRACON
Wed 12:27:02 PM 40.9000 -74.3167 255° West 276 318 6,500 1,300 Climbing New York TRACON
Wed 12:28:02 PM 40.9000 -74.4167 270° West 270 311 8,600 2,000 Climbing New York TRACON
Wed 12:28:32 PM 40.9078 -74.4694 281° West 272 313 9,500 1,909 Climbing New York Center
Wed 12:29:30 PM 40.9156 -74.5578 277° West 265 305 11,400 2,542 Climbing New York Center
Wed 12:30:30 PM 40.9269 -74.6517 279° West 279 321 14,500 2,281 Climbing New York Center
Wed 12:31:31 PM 40.8953 -74.7267 241° Southwest 250 288 16,000 800 Climbing New York Center
Wed 12:32:30 PM 40.8569 -74.8178 241° Southwest 260 299 16,100 99 Climbing New York Center
Wed 12:33:32 PM 40.8706 -74.9064 282° West 265 305 16,200 504 Climbing New York Center
Wed 12:34:29 PM 40.8878 -75.0061 283° West 280 322 17,100 1,627 Climbing New York Center
Wed 12:35:30 PM 40.9083 -75.1256 283° West 291 335 19,400 2,083 Climbing New York Center
Wed 12:36:30 PM 40.8939 -75.2372 260° West 298 343 21,300 2,231 Climbing New York Center
Wed 12:37:31 PM 40.8667 -75.3453 252° West 309 356 23,900 2,700 Climbing New York Center
Wed 12:38:30 PM 40.8442 -75.4425 253° West 303 349 26,700 2,400 Climbing New York Center
Wed 12:39:31 PM 40.8239 -75.5342 254° West 282 325 28,700 1,736 Climbing New York Center
Wed 12:40:31 PM 40.8036 -75.6261 254° West 272 313 30,200 1,714 Climbing New York Center
Wed 12:41:30 PM 40.7808 -75.7178 252° West 267 307 32,100 1,934 Climbing New York Center
Wed 12:42:32 PM 40.7628 -75.8014 254° West 255 293 34,100 1,574 Climbing New York Center
Wed 12:43:32 PM 40.7469 -75.8822 256° West 250 288 35,300 1,333 Climbing New York Center
Wed 12:44:29 PM 40.7267 -75.9631 252° West 239 275 36,700 1,322 Climbing New York Center
Wed 12:45:30 PM 40.7086 -76.0436 254° West 239 275 37,900 1,230 Climbing New York Center
Wed 12:46:31 PM 40.6903 -76.1272 254° West 239 275 39,200 984 Climbing New York Center
Wed 12:47:32 PM 40.6697 -76.2106 252° West 239 275 39,900 397 Climbing New York Center
Wed 12:48:32 PM 40.6717 -76.3036 272° West 245 282 40,000 50 Climbing New York Center
Wed 12:49:31 PM 40.6875 -76.4089 281° West 272 313 40,000  Level New York Center
Wed 12:50:32 PM 40.7031 -76.5197 281° West 292 336 40,000  Level New York Center
Wed 12:51:32 PM 40.7225 -76.6336 283° West 311 358 40,000  Level New York Center
Wed 12:52:30 PM 40.7394 -76.7528 281° West 322 371 40,000  Level New York Center
Wed 12:53:30 PM 40.7533 -76.8472 281° West 329 379 40,000  Level New York Center
Wed 12:54:30 PM 40.7719 -76.9694 281° West 335 386 40,000  Level New York Center
Wed 12:56:19 PM 40.8050 -77.1978 281° West 328 377 40,000  Level Cleveland Center
Wed 12:57:19 PM 40.8211 -77.3178 280° West 328 377 40,000  Level Cleveland Center
Wed 12:58:19 PM 40.8392 -77.4406 281° West 340 391 40,000  Level Cleveland Center
Wed 12:59:19 PM 40.8550 -77.5633 280° West 340 391 40,000  Level Cleveland Center
Wed 01:00:19 PM 40.8728 -77.6889 281° West 340 391 40,000  Level Cleveland Center
Wed 01:01:19 PM 40.8903 -77.8117 281° West 345 397 40,000  Level Cleveland Center
Wed 01:02:19 PM 40.9081 -77.9372 281° West 350 403 40,000  Level Cleveland Center
Wed 01:03:19 PM 40.9233 -78.0658 279° West 350 403 40,000  Level Cleveland Center
Wed 01:04:19 PM 40.9386 -78.1889 279° West 350 403 40,000  Level Cleveland Center
Wed 01:05:19 PM 40.9578 -78.3231 281° West 356 410 40,000  Level Cleveland Center
Wed 01:06:19 PM 40.9728 -78.4489 279° West 361 415 40,000  Level Cleveland Center
Wed 01:07:19 PM 40.9897 -78.5806 280° West 361 415 40,000  Level Cleveland Center
Wed 01:08:19 PM 41.0044 -78.7067 279° West 361 415 40,000  Level Cleveland Center
Wed 01:09:19 PM 41.0211 -78.8356 280° West 356 410 40,000  Level Cleveland Center
Wed 01:10:19 PM 41.0356 -78.9644 278° West 356 410 40,000  Level Cleveland Center
Wed 01:11:19 PM 41.0497 -79.0936 278° West 351 404 40,000  Level Cleveland Center
Wed 01:12:19 PM 41.0658 -79.2172 280° West 351 404 40,000  Level Cleveland Center
Wed 01:13:19 PM 41.0800 -79.3492 278° West 356 410 40,000  Level Cleveland Center
Wed 01:14:19 PM 41.0936 -79.4783 278° West 356 410 40,000  Level Cleveland Center
Wed 01:15:19 PM 41.1075 -79.6075 278° West 356 410 40,000  Level Cleveland Center
Wed 01:16:19 PM 41.1231 -79.7342 279° West 356 410 40,000  Level Cleveland Center
Wed 01:17:19 PM 41.1344 -79.8692 276° West 356 410 40,000  Level Cleveland Center
Wed 01:18:19 PM 41.1478 -80.0122 277° West 361 415 40,000  Level Cleveland Center
Wed 01:19:19 PM 41.1628 -80.1253 280° West 361 415 40,000  Level Cleveland Center
Wed 01:20:19 PM 41.1778 -80.2575 279° West 361 415 40,000  Level Cleveland Center
Wed 01:21:19 PM 41.1906 -80.4011 277° West 361 415 40,000  Level Cleveland Center
Wed 01:22:20 PM 41.2033 -80.5225 278° West 366 421 40,000  Level Cleveland Center
Wed 01:23:19 PM 41.2158 -80.6522 277° West 366 421 40,000  Level Cleveland Center
Wed 01:24:19 PM 41.2281 -80.7819 277° West 366 421 40,000  Level Cleveland Center
Wed 01:25:19 PM 41.2403 -80.9117 277° West 366 421 40,000  Level Cleveland Center
Wed 01:26:19 PM 41.2544 -81.0417 278° West 366 421 40,000  Level Cleveland Center
Wed 01:27:19 PM 41.2664 -81.1714 277° West 361 415 40,000  Level Cleveland Center
Wed 01:28:19 PM 41.2803 -81.3069 278° West 366 421 40,000  Level Cleveland Center
Wed 01:29:19 PM 41.2939 -81.4344 278° West 366 421 40,000  Level Cleveland Center
Wed 01:30:19 PM 41.3075 -81.5700 278° West 366 421 40,000  Level Cleveland Center
Wed 01:31:19 PM 41.3186 -81.7028 276° West 371 427 40,000  Level Cleveland Center
Wed 01:32:19 PM 41.3319 -81.8386 277° West 371 427 40,000  Level Cleveland Center
Wed 01:33:19 PM 41.3428 -81.9714 276° West 371 427 40,000  Level Cleveland Center
Wed 01:34:19 PM 41.3558 -82.1044 277° West 371 427 40,000  Level Cleveland Center
Wed 01:35:19 PM 41.3622 -82.2431 274° West 371 427 40,000  Level Cleveland Center
Wed 01:36:19 PM 41.3703 -82.3900 274° West 366 421 40,000  Level Cleveland Center
Wed 01:37:19 PM 41.3786 -82.5286 275° West 366 421 40,000  Level Cleveland Center
Wed 01:38:19 PM 41.3864 -82.6644 274° West 366 421 40,000  Level Cleveland Center
Wed 01:39:19 PM 41.3922 -82.8003 273° West 372 428 40,000  Level Cleveland Center
Wed 01:40:19 PM 41.4019 -82.9389 275° West 372 428 40,000  Level Cleveland Center
Wed 01:41:19 PM 41.4094 -83.0778 274° West 372 428 40,000  Level Cleveland Center
Wed 01:42:19 PM 41.4128 -83.2108 272° West 372 428 40,000  Level Cleveland Center
Wed 01:43:19 PM 41.4200 -83.3522 274° West 372 428 40,000  Level Cleveland Center
Wed 01:44:19 PM 41.4269 -83.4911 274° West 372 428 40,000  Level Cleveland Center
Wed 01:45:19 PM 41.4358 -83.6300 275° West 377 434 40,000  Level Cleveland Center
Wed 01:46:19 PM 41.4403 -83.7714 272° West 382 440 40,000  Level Cleveland Center
Wed 01:48:03 PM 41.4539 -84.0114 274° West 383 441 40,000  Level Chicago Center
Wed 01:49:05 PM 41.4600 -84.1511 273° West 380 437 40,000  Level Chicago Center
Wed 01:50:07 PM 41.4669 -84.2917 274° West 381 438 40,000  Level Chicago Center
Wed 01:51:09 PM 41.4719 -84.4331 273° West 382 440 40,000  Level Chicago Center
Wed 01:52:11 PM 41.4781 -84.5742 273° West 382 440 40,000  Level Chicago Center
Wed 01:53:13 PM 41.4836 -84.7150 273° West 382 440 40,000  Level Chicago Center
Wed 01:54:15 PM 41.4900 -84.8831 273° West 380 437 40,000  Level Chicago Center
Wed 01:55:17 PM 41.4942 -85.0233 272° West 378 435 40,000  Level Chicago Center
Wed 01:56:19 PM 41.4986 -85.1644 272° West 378 435 40,000  Level Chicago Center
Wed 01:57:21 PM 41.5017 -85.3067 272° West 379 436 40,000  Level Chicago Center
Wed 01:58:23 PM 41.5044 -85.4536 271° West 383 441 40,000  Level Chicago Center
Wed 01:59:26 PM 41.5106 -85.5992 273° West 386 444 40,000  Level Chicago Center
Wed 02:00:28 PM 41.5164 -85.7361 273° West 369 425 40,000  Level Chicago Center
Wed 02:01:30 PM 41.5197 -85.8800 272° West 382 440 40,000  Level Chicago Center
Wed 02:02:32 PM 41.5244 -86.0497 272° West 381 438 40,000  Level Chicago Center
Wed 02:03:34 PM 41.5275 -86.1917 272° West 382 440 40,000  Level Chicago Center
Wed 02:04:36 PM 41.5297 -86.3331 271° West 381 438 40,000  Level Chicago Center
Wed 02:05:38 PM 41.5314 -86.4772 271° West 387 445 40,000  Level Chicago Center
Wed 02:06:40 PM 41.5339 -86.6181 271° West 380 437 40,000  Level Chicago Center
Wed 02:07:42 PM 41.5375 -86.7786 272° West 384 442 40,000  Level Chicago Center
Wed 02:08:44 PM 41.5408 -86.9217 272° West 386 444 40,000  Level Chicago Center
Wed 02:09:46 PM 41.5442 -87.0625 272° West 382 440 40,000  Level Chicago Center
Wed 02:10:49 PM 41.5469 -87.2042 272° West 382 440 40,000  Level Chicago Center
Wed 02:11:51 PM 41.5503 -87.3733 272° West 382 440 40,000  Level Chicago Center
Wed 02:12:53 PM 41.5517 -87.5139 271° West 381 438 40,000  Level Chicago Center
Wed 02:13:55 PM 41.5522 -87.6553 270° West 385 443 40,000  Level Chicago Center
Wed 02:14:57 PM 41.5542 -87.7947 271° West 382 440 40,000  Level Chicago Center
Wed 02:15:59 PM 41.5581 -87.9592 272° West 377 434 40,000  Level Chicago Center
Wed 02:17:01 PM 41.5606 -88.0975 271° West 382 440 40,000  Level Chicago Center
Wed 02:18:03 PM 41.5636 -88.2364 272° West 382 440 40,000  Level Chicago Center
Wed 02:19:05 PM 41.5486 -88.3778 262° West 396 456 40,000  Level Chicago Center
Wed 02:20:07 PM 41.5469 -88.5481 269° West 386 444 40,000  Level Chicago Center
Wed 02:21:09 PM 41.5472 -88.6908 270° West 388 447 40,000  Level Chicago Center
Wed 02:22:11 PM 41.5478 -88.8339 270° West 388 447 40,000  Level Chicago Center
Wed 02:23:13 PM 41.5486 -88.9789 270° West 392 451 40,000  Level Chicago Center
Wed 02:24:16 PM 41.5472 -89.1219 269° West 390 449 40,000  Level Chicago Center
Wed 02:25:18 PM 41.5494 -89.2922 271° West 386 444 40,000  Level Chicago Center
Wed 02:26:20 PM 41.5483 -89.4319 269° West 380 437 40,000  Level Chicago Center
Wed 02:27:22 PM 41.5478 -89.5544 270° West 374 430 40,000  Level Chicago Center
Wed 02:28:24 PM 41.5472 -89.7200 270° West 373 429 40,000  Level Chicago Center
Wed 02:29:26 PM 41.5461 -89.8589 269° West 375 432 40,000  Level Chicago Center
Wed 02:30:28 PM 41.5458 -89.9964 270° West 375 432 40,000  Level Chicago Center
Wed 02:31:30 PM 41.5442 -90.1356 269° West 377 434 40,000  Level Chicago Center
Wed 02:32:33 PM 41.5428 -90.2742 269° West 377 434 40,000 -290 Level Chicago Center
Wed 02:33:34 PM 41.5400 -90.4436 269° West 380 437 39,400 -976 Descending Chicago Center
Wed 02:34:36 PM 41.5383 -90.5853 269° West 382 440 38,000 -677 Descending Chicago Center
Wed 02:35:38 PM 41.5356 -90.7331 269° West 385 443 38,000 -144 Level Chicago Center
Wed 02:36:41 PM 41.5336 -90.8761 269° West 387 445 37,700 -864 Descending Chicago Center
Wed 02:37:43 PM 41.5311 -91.0178 269° West 386 444 36,200 -1,597 Descending Chicago Center
Wed 02:38:45 PM 41.5292 -91.1558 269° West 378 435 34,400 -1,548 Descending Chicago Center
Wed 02:39:47 PM 41.5256 -91.2942 268° West 376 433 33,000 -1,694 Descending Chicago Center
Wed 02:40:49 PM 41.5225 -91.4619 269° West 380 437 30,900 -1,984 Descending Chicago Center
Wed 02:41:51 PM 41.5192 -91.6028 268° West 383 441 28,900 -1,935 Descending Chicago Center
Wed 02:42:53 PM 41.5144 -91.7461 268° West 387 445 26,900 -1,920 Descending Chicago Center
Wed 02:43:56 PM 41.5100 -91.8944 268° West 401 461 24,900 -1,935 Descending Chicago Center
Wed 02:44:57 PM 41.5044 -92.0383 267° West 396 456 22,900 -2,146 Descending Chicago Center
Wed 02:45:59 PM 41.4994 -92.2053 268° West 385 443 20,500 -2,129 Descending Chicago Center
Wed 02:47:01 PM 41.4939 -92.3378 267° West 372 428 18,500 -1,824 Descending Chicago Center
Wed 02:48:04 PM 41.4889 -92.4786 267° West 365 420 16,700 -1,824 Descending Chicago Center
Wed 02:49:06 PM 41.4839 -92.6083 267° West 355 409 14,700 -1,935 Descending Chicago Center
Wed 02:50:08 PM 41.4786 -92.7336 267° West 343 395 12,700 -1,742 Descending Chicago Center
Wed 02:51:10 PM 41.4736 -92.8508 267° West 330 380 11,100 -1,698 Descending Chicago Center
Wed 02:51:54 PM 41.4758 -92.9389 272° West 289 333 9,700 -1,500 Descending Minneapolis Center
Wed 02:52:38 PM 41.4697 -93.0036 263° West 284 327 8,900 -1,472 Descending Minneapolis Center
Wed 02:53:40 PM 41.5033 -93.1253 290° West 284 327 7,100 -1,500 Descending Minneapolis Center
Wed 02:54:42 PM 41.5336 -93.2189 293° West 278 320 5,800 -1,210 Descending Minneapolis Center
Wed 02:55:44 PM 41.5647 -93.3175 293° West 270 311 4,600 -871 Descending Minneapolis Center
Wed 02:56:46 PM 41.5850 -93.3953 289° West 265 305 4,000 -290 Descending Minneapolis Center
Wed 02:57:48 PM 41.5992 -93.4789 283° West 236 272 4,000 -364 Level Minneapolis Center
Wed 02:58:58 PM 41.6242 -93.5753 289° West 219 252 3,200 -733 Descending Minneapolis Center
Wed 02:59:59 PM 41.6114 -93.6461 256° West 189 217 2,400 -793 Descending Minneapolis Center
Wed 03:00:59 PM 41.5758 -93.6856 220° Southwest 154 177 1,600 -682 Descending Minneapolis Center
Wed 03:02:11 PM 41.5425 -93.6692 160° South 121 139 900 -583 Descending Minneapolis Center
Wed 03:04:00 PM 41.5340 -93.6631 North  Level Estimated

Login

Don't have an account? Register now (free) for customized features, flight alerts, and more!